Aviation Digital Data Service (ADDS)

Output produced by METARs form (1117 UTC 19 January 2019)
found at http://www.aviationweather.gov/metar/data/
 
KADG 191053Z AUTO 08015KT 10SM FEW009 SCT042 BKN100 M06/M08 A3010 RMK AO2 SLP206 T10561078 TSNO
KAMN 191115Z AUTO 02006KT 2 1/2SM -SN SCT015 OVC021 M10/M12 A3021 RMK AO2 VIS 2V3 T11011121
KAPN 191054Z AUTO 04008KT 4SM HZ OVC025 M14/M17 A3033 RMK AO2 VIS 1 3/4 RY 19 SNB34E50 SLP289 P0000 T11391167
KAPN 190631Z 1907/2006 VRB05KT P6SM VCSH SCT015 OVC030 
     TEMPO 1906/1909 2SM -SHSN BKN012 OVC025 
     FM190900 05006KT 4SM -SHSN SCT015 OVC025 
     FM191800 04009KT P6SM OVC020 
     FM192000 03008KT P6SM BKN025 
     FM192300 03007KT P6SM SCT025
       
KARB 191113Z AUTO 02008KT 1 3/4SM -SN BR OVC023 M06/M07 A3012 RMK AO2 P0000 T10611072
KBAX 191115Z AUTO 08006KT 1SM -SN OVC014 M08/M10 A3024 RMK AO2 T10851100
KBTL 191111Z 05015G21KT 1 1/2SM -SN BR OVC017 M06/M08 A3007 RMK AO2 P0000 T10611078
KBTL 190540Z 1906/2006 07009G16KT 1SM -SN OVC015 
     TEMPO 1906/1908 1/2SM SN OVC009 
     FM191000 06012G22KT 1/2SM SN OVC009 
     FM191300 06010G21KT 1SM -SN OVC007 
     FM191400 05014G22KT 2SM -SN OVC012 
     FM191700 05014G22KT P6SM OVC017 
     FM192100 04013G22KT P6SM BKN025 
     FM200300 02010G21KT P6SM SCT045
       
KACB 191116Z AUTO 03004KT 10SM OVC090 M13/M18 A3031 RMK AO2 T11261179
KBEH 191053Z AUTO 05010G21KT 1SM -SN BR FEW012 BKN017 OVC033 M04/M07 A3002 RMK AO2 SNB39 PRESFR SLP175 P0000 T10441067
KRQB 191115Z AUTO 04003KT 2 1/2SM -SN OVC017 M11/M13 A3019 RMK AO2 T11151132
KCAD 191115Z AUTO 05006KT 4SM -SN BKN025 BKN031 OVC039 M13/M17 A3019 RMK AO2 T11371170
KCFS 191115Z AUTO 07006KT 2 1/2SM -SN OVC017 M08/M10 A3022 RMK AO2 T10811099
KCVX 191115Z AUTO 06006KT 10SM SCT015 OVC020 M13/M16 A3035 RMK AO2 T11261158
KFPK 191116Z AUTO 04009KT 2SM -SN OVC011 M08/M09 A3013 RMK AO2 VIS 1 3/4V3 T10771090
KSLH 191115Z AUTO 09009KT 5SM HZ OVC019 M14/M16 A3034 RMK AO2 T11401164
KOEB 191116Z AUTO 07011KT 10SM BKN013 OVC024 M04/M06 A3004 RMK AO2 T10411059
KDET 191107Z 08009KT 1 3/4SM -SN BR SCT010 OVC022 M06/M08 A3017 RMK AO2 P0000 T10561078
KDET 190527Z 1906/2006 04008KT 6SM -SHSN SCT025 OVC040 
     FM190700 04009KT 2SM -SN OVC015 
     FM190800 05014KT 1SM -SN BR OVC009 
     FM191200 05014KT 3SM -SN BR OVC012 
     FM191500 04015KT 1SM -SN BR OVC009 
     FM191800 03015G24KT 5SM -SN BR BKN015 OVC025 
     FM192100 02014G24KT P6SM SCT015 OVC030 
     FM200200 35016G26KT P6SM BKN035
       
KDTW 191053Z 03007KT 3/4SM R03R/5000VP6000FT -SN BR OVC010 M06/M08 A3015 RMK AO2 TWR VIS 1 SLP220 P0004 T10561078
KDTW 190856Z 1909/2012 05014KT 1SM -SN BR OVC009 
     FM191200 05014KT 3SM -SN BR OVC015 
     FM191500 04015KT 1SM -SN BR OVC009 
     FM191800 03015G24KT 5SM -SN BR BKN015 OVC025 
     FM192100 02014G24KT P6SM SCT015 OVC030 
     FM200200 35016G26KT P6SM BKN028
       
KONZ 191115Z AUTO 05013G19KT 4SM -SN SCT020 BKN080 OVC090 M05/M06 A3013 RMK AO2 T10521065
KYIP 191104Z 04010KT 1SM R05R/P6000FT -SN BR VV014 M05/M07 A3014 RMK AO2 P0000 T10501072
KYIP 190527Z 1906/2006 04008KT 4SM -SHSN SCT015 OVC030 
     FM190700 04009KT 2SM -SN OVC015 
     FM190800 05014KT 1SM -SN BR OVC009 
     FM191200 05014KT 3SM -SN BR OVC012 
     FM191500 04015KT 1SM -SN BR OVC009 
     FM191800 03015G24KT 5SM -SN BR BKN015 OVC025 
     FM192100 02014G24KT P6SM SCT015 OVC030 
     FM200200 35016G26KT P6SM BKN035
       
KDRM 191116Z AUTO 04003KT 10SM CLR M22/M25 A3039 RMK AO2 T12171250
KESC 191056Z AUTO 35003KT 10SM CLR M16/M18 A3035 RMK AO2 SLP306 T11611183 FZRANO
KFNT 191103Z 04010KT 2SM -SN BR OVC021 M08/M09 A3017 RMK AO2 P0000 T10781094
KFNT 190557Z 1906/2006 05014KT 2SM -SN BR OVC018 
     FM191600 03015G23KT 5SM -SN BR BKN018 OVC025 
     FM192000 02014G23KT P6SM SCT015 OVC030 
     FM200200 35016G23KT P6SM BKN035
       
KFKS 191115Z AUTO 10003KT 4SM -SN OVC026 M12/M16 A3028 RMK AO2 T11201160
KFFX 191116Z AUTO 05009KT 2 1/2SM -SN OVC015 M09/M12 A3019 RMK AO2 VIS 1 3/4V3 T10931116
KGLR 191053Z AUTO 06005KT 10SM SCT011 OVC023 M16/M16 A3024 RMK AO2 SLP272 T11561161
KGRR 191053Z 06014KT 1 1/2SM -SN OVC020 M09/M12 A3015 RMK AO2 SLP222 P0001 T10891117
KGRR 190723Z 1907/2006 05011G16KT 2SM -SN OVC015 
     TEMPO 1908/1912 1SM -SN VV009 
     FM191500 05013G21KT 2SM -SN OVC015 
     FM191700 05013G22KT P6SM OVC035 
     FM200000 03012KT P6SM SCT040
       
KGOV 191058Z AUTO 06006KT 2 1/2SM -SN OVC024 M14/M17 A3024 RMK AO2 VIS 2 1/2V3 SNB15 SLP274 P0000 T11431167 $
KCMX 191053Z AUTO 05003KT 10SM OVC034 M16/M21 A3032 RMK AO2 SNB0958E07 SLP298 P0000 T11561211
KCMX 190909Z 1909/2006 VRB04KT P6SM -SHSN BKN035 
     FM191100 36005KT 2SM -SHSN BKN014 
     FM192000 33009KT 3SM -SHSN OVC015
       
KMGN 191115Z AUTO 04006KT 10SM OVC022 M13/M17 A3032 RMK AO2 T11401171
KJYM 191116Z AUTO 06009KT 10SM BKN010 OVC030 M05/M08 A3006 RMK AO2 T10521079
KBIV 191103Z AUTO 07009G17KT 3/4SM -SN VV012 M07/M10 A3013 RMK AO2 P0001 T10721100
KHTL 191107Z AUTO 05007KT 1 3/4SM -SN OVC028 M13/M16 A3023 RMK AO2 P0000 T11331161
KOZW 191115Z AUTO 04006KT 2SM -SN OVC018 M07/M09 A3013 RMK AO2 T10721090
KY70 191116Z AUTO 04012KT 5SM -SN SCT013 OVC020 M10/M12 A3017 RMK AO2 T10961120
KIMT 191054Z AUTO 33005KT 10SM OVC028 M16/M19 A3028 RMK AO2 SLP285 T11611194
KIWD 191056Z AUTO 25004KT 10SM OVC034 M18/M22 A3032 RMK AO2 SLP303 T11831222 FZRANO PNO $
KIWD 190909Z 1909/2006 VRB04KT P6SM BKN035 
     FM191700 31007KT 2SM -SHSN BKN015 
     FM200100 33005KT 3SM -SHSN BKN015
       
KJXN 191114Z AUTO 02014KT 2SM -SN BR OVC031 M06/M07 A3010 RMK AO2 P0000 T10611072
KJXN 190540Z 1906/2006 05009G16KT 1 1/2SM -SN OVC015 
     TEMPO 1906/1910 3/4SM -SN OVC009 
     FM191400 05014KT 2SM -SN OVC015 
     FM191600 05014G22KT 1SM -SN OVC012 
     FM191900 05013G21KT P6SM OVC015 
     FM192000 03014G23KT P6SM BKN025
       
KAZO 191053Z AUTO 07008KT 10SM FEW011 SCT055 OVC070 M06/M08 A3008 RMK AO2 SNE41 SLP200 P0000 T10561078
KAZO 190540Z 1906/2006 07009G16KT 1SM -SN OVC015 
     TEMPO 1906/1908 1/2SM SN OVC009 
     FM191000 06012G22KT 1/2SM SN OVC009 
     FM191300 06010G21KT 1SM -SN OVC007 
     FM191400 05014G22KT 2SM -SN OVC012 
     FM191700 05014G22KT P6SM OVC017 
     FM192100 04013G22KT P6SM BKN025 
     FM200300 02010G21KT P6SM SCT045
       
KDUH 191115Z AUTO 07008KT 10SM BKN010 OVC034 M04/M05 A3010 RMK AO2 T10361055
KLAN 191103Z 04009KT 1SM R28L/P6000FT -SN BR VV015 M08/M09 A3016 RMK AO2 P0001 T10831094
KLAN 190540Z 1906/2006 06009G16KT 1 1/2SM -SN BR OVC015 
     TEMPO 1906/1910 3/4SM -SN OVC009 
     FM191000 05011G18KT 3/4SM -SN OVC013 
     FM191300 05011G20KT 1 1/2SM -SN OVC017 
     FM191900 05013G21KT 2SM -SN OVC015 
     FM192100 04013G22KT P6SM BKN025 
     FM200100 02012G23KT P6SM SCT025
       
KD95 191115Z AUTO 05008KT 3SM -SN OVC021 M07/M10 A3018 RMK AO2 T10721097
KLDM 191115Z AUTO 06007KT 020V090 2 1/2SM -SN BKN022 BKN028 OVC034 M11/M13 A3023 RMK AO2 VIS 2V3 T11061130
KMCD 191115Z AUTO 05009G15KT 5SM BR OVC004 M18/M20 A3035 RMK AO2 T11761198
KMBL 191056Z AUTO 07010KT 5SM -SN BR OVC036 M12/M14 A3026 RMK AO2 SLP269 P0000 T11221144 FZRANO
KMBL 190640Z 1907/2006 04008KT 6SM -SN SCT020 OVC035 
     TEMPO 1906/1910 2SM -SN BKN012 OVC020 
     FM191300 06008KT P6SM VCSH OVC050 
     FM191500 06010G19KT P6SM BKN070 
     FM192000 04009KT P6SM BKN250 
     FM200500 06008KT P6SM FEW030 BKN100
       
KISQ 191115Z AUTO 06005KT 10SM CLR M18/M24 A3034 RMK AO2 T11801241
KSAW 191059Z AUTO 00000KT 4SM -SN OVC021 M14/M17 A3028 RMK AO2 T11451166
KSAW 190523Z 1906/2006 32006KT 4SM -SHSN BKN025 
     FM190800 01005KT 2SM -SHSN BKN015 
     FM191100 36005KT 3SM -SHSN BKN015 
     FM192000 35008KT 4SM -SHSN BKN025 
     FM200200 33006KT 3SM -SHSN BKN015
       
KRMY 191116Z AUTO 05007KT 3SM -SN SCT009 BKN020 OVC043 M06/M06 A3009 RMK AO2 T10561056
KTEW 191115Z AUTO 04009KT 1 1/2SM -SN OVC012 M07/M08 A3014 RMK AO2 T10681081
KMNM 191056Z AUTO 01009KT 10SM OVC025 M14/M18 A3033 RMK AO2 SLP294 T11391178 FZRANO $
KIKW 191115Z AUTO 01004KT 1 3/4SM -SN OVC015 M10/M12 A3024 RMK AO2 T11001120
KTTF 191115Z AUTO 05010G14KT 10SM SCT009 BKN015 BKN045 M04/M05 A3011 RMK AO2 T10451050
KMOP 191115Z AUTO 03005KT 2 1/2SM -SN OVC016 M10/M13 A3022 RMK AO2 VIS 2V3 T11051135
KMKG 191055Z 05010KT 1 1/2SM -SN OVC014 M08/M12 A3018 RMK AO2 SLP230 P0002 T10831117 $
KMKG 190540Z 1906/2006 04010G16KT 1 1/2SM -SN OVC025 
     FM191400 05015G20KT 3SM -SN OVC018 
     FM191600 05012G20KT P6SM OVC025 
     FM191700 05012G20KT P6SM OVC040 
     FM200000 03012KT P6SM SCT040
       
KERY 191115Z AUTO 07005KT 10SM BKN019 M23/M25 A3034 RMK AO2 T12261248
KOSC 191115Z AUTO 05011KT 4SM -SN BKN014 OVC019 M10/M13 A3028 RMK AO2 T10981126
KRNP 191116Z AUTO 02006KT 2SM -SN OVC008 M07/M09 A3018 RMK AO2 T10751091
KPLN 191054Z AUTO 04007KT 4SM -SN OVC020 M14/M17 A3033 RMK AO2 SNB52 SLP290 P0000 T11441172
KPLN 190831Z 1909/2006 04005KT P6SM SCT025 OVC120 
     TEMPO 1909/1913 BKN025 
     FM191500 06007KT P6SM SCT025 BKN120 
     FM192100 05006KT P6SM FEW250 
     FM200100 VRB04KT P6SM SCT250 
     FM200400 VRB03KT P6SM SCT040
       
KPTK 191053Z 05009KT 1 3/4SM -SN BR BKN028 OVC038 M07/M09 A3013 RMK AO2 SLP219 P0000 T10721094
KPTK 190527Z 1906/2006 04009KT 3SM -SN OVC025 
     FM190800 05014KT 1 1/2SM -SN BR OVC015 
     FM191200 05014KT 2SM -SN BR OVC012 
     FM191500 04015KT 1SM -SN BR OVC008 
     FM191800 03015G24KT 5SM -SN BR BKN015 OVC025 
     FM192100 02014G24KT P6SM SCT015 OVC030 
     FM200200 35016G26KT P6SM BKN035
       
KPHN 191116Z AUTO 05008KT 3SM -SN OVC022 M07/M09 A3021 RMK AO2
KPZQ 191115Z AUTO 06007KT 5SM HZ OVC013 M14/M17 A3036 RMK AO2 T11451170
KMBS 191109Z 02009KT 3/4SM R23/6000VP6000FT -SN BR VV016 M10/M12 A3024 RMK AO2 P0000 T11001117
KMBS 190558Z 1906/2006 04014KT 2SM -SN BR OVC022 
     FM191200 04014KT 4SM -SN BR OVC018 
     FM191800 04015G21KT 5SM -SN BKN018 OVC035 
     FM192200 02014KT P6SM -SN SCT025 BKN035
       
KHYX 191115Z AUTO 06012KT 3SM -SN BKN010 OVC014 M07/M08 A3022 RMK AO2
KCIU 191056Z AUTO 07009KT 10SM CLR M24/M27 A3037 RMK AO2 SLP314 T12391272 FZRANO
KANJ 191055Z AUTO 07005KT 10SM CLR M23/M28 A3038 RMK AO2 SLP308 T12331283
KLWA 191116Z AUTO 07011G18KT 7SM BKN045 OVC055 M05/M08 A3005 RMK AO2 T10551078
KIRS 191115Z AUTO 08014G21KT 3SM -SN BKN015 OVC021 M04/M06 A3001 RMK AO2 T10371061
KHAI 191116Z AUTO 08013G18KT 10SM BKN014 OVC023 M05/M07 A3004 RMK AO2 T10461066
KTVC 191053Z AUTO 07008KT 10SM OVC060 M12/M17 A3029 RMK AO2 SLP268 T11171172 $
KTVC 190522Z 1906/2006 06007KT P6SM OVC025 
     TEMPO 1906/1908 SCT025 OVC090 
     FM190800 06007KT P6SM OVC090 
     FM191200 07007KT P6SM BKN090 
     FM191900 05008KT P6SM BKN250 
     FM200200 07006KT P6SM SCT250 
     FM200500 04005KT P6SM FEW030 BKN250
       
KVLL 191115Z AUTO 04007KT 1 1/4SM -SN OVC007 M06/M08 A3018 RMK AO2 T10611083
KY31 191115Z AUTO 04007KT 4SM -SN SCT016 SCT022 OVC027 M12/M14 A3023 RMK AO2 T11171142